sensor_id;sensor_type;location;lat;lon;timestamp;pressure;altitude;pressure_sealevel;temperature;humidity
54872;BME280;43914;57.680;11.982;2023-01-27T00:00:32;102112.05;;;-1.85;100.00
54872;BME280;43914;57.680;11.982;2023-01-27T00:02:57;102113.75;;;-1.88;100.00
54872;BME280;43914;57.680;11.982;2023-01-27T00:05:23;102118.78;;;-1.91;100.00
54872;BME280;43914;57.680;11.982;2023-01-27T00:07:49;102124.38;;;-1.93;100.00
54872;BME280;43914;57.680;11.982;2023-01-27T00:10:16;102125.91;;;-1.97;100.00
54872;BME280;43914;57.680;11.982;2023-01-27T00:12:44;102126.02;;;-1.99;100.00
54872;BME280;43914;57.680;11.982;2023-01-27T00:15:30;102128.13;;;-2.03;100.00
54872;BME280;43914;57.680;11.982;2023-01-27T00:17:56;102130.17;;;-2.06;100.00
54872;BME280;43914;57.680;11.982;2023-01-27T00:20:23;102132.71;;;-2.08;100.00
54872;BME280;43914;57.680;11.982;2023-01-27T00:23:40;102130.22;;;-2.11;100.00
54872;BME280;43914;57.680;11.982;2023-01-27T00:26:19;102136.60;;;-2.16;100.00
54872;BME280;43914;57.680;11.982;2023-01-27T00:28:45;102139.94;;;-2.16;100.00
54872;BME280;43914;57.680;11.982;2023-01-27T00:31:13;102141.90;;;-2.17;100.00
54872;BME280;43914;57.680;11.982;2023-01-27T00:33:57;102113.34;;;-2.30;100.00
54872;BME280;43914;57.680;11.982;2023-01-27T00:36:33;102127.69;;;-2.17;100.00
54872;BME280;43914;57.680;11.982;2023-01-27T00:38:59;102123.42;;;-2.16;100.00
54872;BME280;43914;57.680;11.982;2023-01-27T00:41:25;102116.08;;;-2.16;100.00
54872;BME280;43914;57.680;11.982;2023-01-27T00:43:53;102118.20;;;-2.13;100.00
54872;BME280;43914;57.680;11.982;2023-01-27T00:46:21;102110.48;;;-2.13;100.00
54872;BME280;43914;57.680;11.982;2023-01-27T00:48:47;102113.89;;;-2.11;100.00
54872;BME280;43914;57.680;11.982;2023-01-27T00:51:13;102115.38;;;-2.09;100.00
54872;BME280;43914;57.680;11.982;2023-01-27T00:53:40;102114.27;;;-2.08;100.00
54872;BME280;43914;57.680;11.982;2023-01-27T00:56:08;102115.02;;;-2.09;100.00
54872;BME280;43914;57.680;11.982;2023-01-27T00:58:34;102111.84;;;-2.08;100.00
54872;BME280;43914;57.680;11.982;2023-01-27T01:01:02;102115.58;;;-2.10;100.00
54872;BME280;43914;57.680;11.982;2023-01-27T01:03:29;102120.65;;;-2.09;100.00
54872;BME280;43914;57.680;11.982;2023-01-27T01:06:05;102114.45;;;-2.08;100.00
54872;BME280;43914;57.680;11.982;2023-01-27T01:08:32;102114.61;;;-2.07;100.00
54872;BME280;43914;57.680;11.982;2023-01-27T01:10:58;102123.86;;;-2.06;100.00
54872;BME280;43914;57.680;11.982;2023-01-27T01:13:26;102129.55;;;-2.04;100.00
54872;BME280;43914;57.680;11.982;2023-01-27T01:15:53;102130.52;;;-2.01;100.00
54872;BME280;43914;57.680;11.982;2023-01-27T01:18:19;102126.47;;;-2.01;100.00
54872;BME280;43914;57.680;11.982;2023-01-27T01:20:45;102127.77;;;-1.98;100.00
54872;BME280;43914;57.680;11.982;2023-01-27T01:23:12;102131.52;;;-2.00;100.00
54872;BME280;43914;57.680;11.982;2023-01-27T01:25:38;102134.66;;;-2.00;100.00
54872;BME280;43914;57.680;11.982;2023-01-27T01:28:05;102143.63;;;-2.00;100.00
54872;BME280;43914;57.680;11.982;2023-01-27T01:30:33;102139.99;;;-2.01;100.00
54872;BME280;43914;57.680;11.982;2023-01-27T01:32:59;102135.44;;;-2.01;100.00
54872;BME280;43914;57.680;11.982;2023-01-27T01:35:25;102130.52;;;-2.01;100.00
54872;BME280;43914;57.680;11.982;2023-01-27T01:37:52;102138.94;;;-2.01;100.00
54872;BME280;43914;57.680;11.982;2023-01-27T01:40:17;102143.20;;;-2.02;100.00
54872;BME280;43914;57.680;11.982;2023-01-27T01:42:48;102130.95;;;-2.04;100.00
54872;BME280;43914;57.680;11.982;2023-01-27T01:48:05;102134.05;;;-2.06;100.00
54872;BME280;43914;57.680;11.982;2023-01-27T01:50:33;102134.33;;;-2.09;100.00
54872;BME280;43914;57.680;11.982;2023-01-27T01:53:01;102130.70;;;-2.10;100.00
54872;BME280;43914;57.680;11.982;2023-01-27T01:55:29;102134.08;;;-2.11;100.00
54872;BME280;43914;57.680;11.982;2023-01-27T01:57:57;102140.84;;;-2.13;100.00
54872;BME280;43914;57.680;11.982;2023-01-27T02:00:23;102144.11;;;-2.15;100.00
54872;BME280;43914;57.680;11.982;2023-01-27T02:02:50;102148.06;;;-2.17;100.00
54872;BME280;43914;57.680;11.982;2023-01-27T02:05:19;102146.21;;;-2.19;100.00
54872;BME280;43914;57.680;11.982;2023-01-27T02:07:53;102139.03;;;-2.20;100.00
54872;BME280;43914;57.680;11.982;2023-01-27T02:10:21;102142.60;;;-2.21;100.00
54872;BME280;43914;57.680;11.982;2023-01-27T02:12:47;102143.06;;;-2.24;100.00
54872;BME280;43914;57.680;11.982;2023-01-27T02:15:13;102142.94;;;-2.25;100.00
54872;BME280;43914;57.680;11.982;2023-01-27T02:17:39;102141.62;;;-2.27;100.00
54872;BME280;43914;57.680;11.982;2023-01-27T02:20:14;102141.34;;;-2.29;100.00
54872;BME280;43914;57.680;11.982;2023-01-27T02:25:50;102154.86;;;-2.33;100.00
54872;BME280;43914;57.680;11.982;2023-01-27T02:28:17;102167.17;;;-2.33;100.00
54872;BME280;43914;57.680;11.982;2023-01-27T02:30:43;102167.04;;;-2.34;100.00
54872;BME280;43914;57.680;11.982;2023-01-27T02:33:19;102161.77;;;-2.34;100.00
54872;BME280;43914;57.680;11.982;2023-01-27T02:36:13;102161.67;;;-2.37;100.00
54872;BME280;43914;57.680;11.982;2023-01-27T02:38:46;102163.89;;;-2.39;100.00
54872;BME280;43914;57.680;11.982;2023-01-27T02:43:47;102174.36;;;-2.42;100.00
54872;BME280;43914;57.680;11.982;2023-01-27T02:46:14;102171.30;;;-2.44;100.00
54872;BME280;43914;57.680;11.982;2023-01-27T02:48:40;102170.47;;;-2.45;100.00
54872;BME280;43914;57.680;11.982;2023-01-27T02:51:05;102174.73;;;-2.47;100.00
54872;BME280;43914;57.680;11.982;2023-01-27T02:53:31;102180.64;;;-2.49;100.00
54872;BME280;43914;57.680;11.982;2023-01-27T02:55:57;102191.02;;;-2.51;100.00
54872;BME280;43914;57.680;11.982;2023-01-27T02:58:23;102181.84;;;-2.53;100.00
54872;BME280;43914;57.680;11.982;2023-01-27T03:00:48;102183.73;;;-2.57;100.00
54872;BME280;43914;57.680;11.982;2023-01-27T03:03:15;102183.31;;;-2.59;100.00
54872;BME280;43914;57.680;11.982;2023-01-27T03:05:41;102184.60;;;-2.60;100.00
54872;BME280;43914;57.680;11.982;2023-01-27T03:08:07;102180.16;;;-2.59;100.00
54872;BME280;43914;57.680;11.982;2023-01-27T03:10:32;102174.58;;;-2.60;100.00
54872;BME280;43914;57.680;11.982;2023-01-27T03:12:58;102173.38;;;-2.61;100.00
54872;BME280;43914;57.680;11.982;2023-01-27T03:15:23;102174.47;;;-2.62;100.00
54872;BME280;43914;57.680;11.982;2023-01-27T03:18:09;102175.00;;;-2.62;100.00
54872;BME280;43914;57.680;11.982;2023-01-27T03:20:43;102169.90;;;-2.62;100.00
54872;BME280;43914;57.680;11.982;2023-01-27T03:23:09;102171.51;;;-2.62;100.00
54872;BME280;43914;57.680;11.982;2023-01-27T03:25:36;102169.45;;;-2.64;100.00
54872;BME280;43914;57.680;11.982;2023-01-27T03:28:04;102167.90;;;-2.64;100.00
54872;BME280;43914;57.680;11.982;2023-01-27T03:30:30;102166.08;;;-2.63;100.00
54872;BME280;43914;57.680;11.982;2023-01-27T03:32:55;102167.69;;;-2.63;100.00
54872;BME280;43914;57.680;11.982;2023-01-27T03:35:25;102162.24;;;-2.63;100.00
54872;BME280;43914;57.680;11.982;2023-01-27T03:37:59;102158.04;;;-2.63;100.00
54872;BME280;43914;57.680;11.982;2023-01-27T03:40:44;102158.30;;;-2.65;100.00
54872;BME280;43914;57.680;11.982;2023-01-27T03:43:28;102167.42;;;-2.65;100.00
54872;BME280;43914;57.680;11.982;2023-01-27T03:46:12;102174.02;;;-2.64;100.00
54872;BME280;43914;57.680;11.982;2023-01-27T03:48:48;102172.25;;;-2.63;100.00
54872;BME280;43914;57.680;11.982;2023-01-27T03:51:15;102172.38;;;-2.62;100.00
54872;BME280;43914;57.680;11.982;2023-01-27T03:53:41;102169.11;;;-2.64;100.00
54872;BME280;43914;57.680;11.982;2023-01-27T03:56:06;102167.75;;;-2.65;100.00
54872;BME280;43914;57.680;11.982;2023-01-27T03:58:34;102163.65;;;-2.63;100.00
54872;BME280;43914;57.680;11.982;2023-01-27T04:03:59;102167.64;;;-2.66;100.00
54872;BME280;43914;57.680;11.982;2023-01-27T04:06:43;102173.17;;;-2.69;100.00
54872;BME280;43914;57.680;11.982;2023-01-27T04:09:41;102170.67;;;-2.72;100.00
54872;BME280;43914;57.680;11.982;2023-01-27T04:12:06;102167.34;;;-2.76;100.00
54872;BME280;43914;57.680;11.982;2023-01-27T04:14:36;102167.36;;;-2.77;100.00
54872;BME280;43914;57.680;11.982;2023-01-27T04:17:18;102163.08;;;-2.75;100.00
54872;BME280;43914;57.680;11.982;2023-01-27T04:19:44;102159.27;;;-2.76;100.00
54872;BME280;43914;57.680;11.982;2023-01-27T04:22:13;102157.56;;;-2.78;100.00
54872;BME280;43914;57.680;11.982;2023-01-27T04:24:40;102156.77;;;-2.79;100.00
54872;BME280;43914;57.680;11.982;2023-01-27T04:27:12;102154.88;;;-2.80;100.00
54872;BME280;43914;57.680;11.982;2023-01-27T04:29:39;102155.80;;;-2.82;100.00
54872;BME280;43914;57.680;11.982;2023-01-27T04:32:07;102153.25;;;-2.84;100.00
54872;BME280;43914;57.680;11.982;2023-01-27T04:34:34;102160.58;;;-2.87;100.00
54872;BME280;43914;57.680;11.982;2023-01-27T04:37:00;102170.74;;;-2.87;100.00
54872;BME280;43914;57.680;11.982;2023-01-27T04:39:28;102174.30;;;-2.88;100.00
54872;BME280;43914;57.680;11.982;2023-01-27T04:41:57;102171.08;;;-2.91;100.00
54872;BME280;43914;57.680;11.982;2023-01-27T04:44:23;102175.84;;;-2.92;100.00
54872;BME280;43914;57.680;11.982;2023-01-27T04:46:49;102180.20;;;-2.91;100.00
54872;BME280;43914;57.680;11.982;2023-01-27T04:49:15;102184.23;;;-2.91;100.00
54872;BME280;43914;57.680;11.982;2023-01-27T04:51:41;102184.10;;;-2.92;100.00
54872;BME280;43914;57.680;11.982;2023-01-27T04:54:07;102183.55;;;-2.91;100.00
54872;BME280;43914;57.680;11.982;2023-01-27T04:56:42;102179.10;;;-2.90;100.00
54872;BME280;43914;57.680;11.982;2023-01-27T04:59:12;102174.41;;;-2.91;100.00
54872;BME280;43914;57.680;11.982;2023-01-27T05:01:40;102175.68;;;-2.92;100.00
54872;BME280;43914;57.680;11.982;2023-01-27T05:04:06;102175.81;;;-2.91;100.00
54872;BME280;43914;57.680;11.982;2023-01-27T05:06:35;102176.84;;;-2.91;100.00
54872;BME280;43914;57.680;11.982;2023-01-27T05:09:01;102176.99;;;-2.90;100.00
54872;BME280;43914;57.680;11.982;2023-01-27T05:11:26;102177.63;;;-2.88;100.00
54872;BME280;43914;57.680;11.982;2023-01-27T05:13:55;102177.73;;;-2.86;100.00
54872;BME280;43914;57.680;11.982;2023-01-27T05:16:23;102175.57;;;-2.85;100.00
54872;BME280;43914;57.680;11.982;2023-01-27T05:18:51;102173.66;;;-2.86;100.00
54872;BME280;43914;57.680;11.982;2023-01-27T05:21:23;102170.78;;;-2.88;100.00
54872;BME280;43914;57.680;11.982;2023-01-27T05:23:50;102179.36;;;-2.83;100.00
54872;BME280;43914;57.680;11.982;2023-01-27T05:26:18;102173.89;;;-2.82;100.00
54872;BME280;43914;57.680;11.982;2023-01-27T05:28:46;102171.42;;;-2.82;100.00
54872;BME280;43914;57.680;11.982;2023-01-27T05:31:17;102169.09;;;-2.81;100.00
54872;BME280;43914;57.680;11.982;2023-01-27T05:33:44;102173.27;;;-2.80;100.00
54872;BME280;43914;57.680;11.982;2023-01-27T05:36:12;102174.79;;;-2.78;100.00
54872;BME280;43914;57.680;11.982;2023-01-27T05:38:38;102174.95;;;-2.78;100.00
54872;BME280;43914;57.680;11.982;2023-01-27T05:41:07;102175.71;;;-2.75;100.00
54872;BME280;43914;57.680;11.982;2023-01-27T05:43:35;102166.07;;;-2.75;100.00
54872;BME280;43914;57.680;11.982;2023-01-27T05:46:08;102170.96;;;-2.74;100.00
54872;BME280;43914;57.680;11.982;2023-01-27T05:48:36;102174.59;;;-2.73;100.00
54872;BME280;43914;57.680;11.982;2023-01-27T05:51:02;102168.20;;;-2.76;100.00
54872;BME280;43914;57.680;11.982;2023-01-27T05:53:28;102176.09;;;-2.72;100.00
54872;BME280;43914;57.680;11.982;2023-01-27T05:55:54;102183.40;;;-2.70;100.00
54872;BME280;43914;57.680;11.982;2023-01-27T05:58:20;102181.83;;;-2.70;100.00
54872;BME280;43914;57.680;11.982;2023-01-27T06:00:46;102182.85;;;-2.70;100.00
54872;BME280;43914;57.680;11.982;2023-01-27T06:03:13;102182.99;;;-2.68;100.00
54872;BME280;43914;57.680;11.982;2023-01-27T06:05:38;102186.46;;;-2.68;100.00
54872;BME280;43914;57.680;11.982;2023-01-27T06:08:04;102183.30;;;-2.68;100.00
54872;BME280;43914;57.680;11.982;2023-01-27T06:10:30;102185.77;;;-2.68;100.00
54872;BME280;43914;57.680;11.982;2023-01-27T06:12:57;102186.66;;;-2.68;100.00
54872;BME280;43914;57.680;11.982;2023-01-27T06:15:24;102187.52;;;-2.68;100.00
54872;BME280;43914;57.680;11.982;2023-01-27T06:17:50;102194.92;;;-2.68;100.00
54872;BME280;43914;57.680;11.982;2023-01-27T06:20:15;102203.70;;;-2.69;100.00
54872;BME280;43914;57.680;11.982;2023-01-27T06:22:41;102210.44;;;-2.70;100.00
54872;BME280;43914;57.680;11.982;2023-01-27T06:25:07;102208.89;;;-2.71;100.00
54872;BME280;43914;57.680;11.982;2023-01-27T06:27:32;102209.90;;;-2.70;100.00
54872;BME280;43914;57.680;11.982;2023-01-27T06:29:58;102209.00;;;-2.65;100.00
54872;BME280;43914;57.680;11.982;2023-01-27T06:32:23;102207.13;;;-2.67;100.00
54872;BME280;43914;57.680;11.982;2023-01-27T06:34:49;102206.70;;;-2.69;100.00
54872;BME280;43914;57.680;11.982;2023-01-27T06:37:14;102215.90;;;-2.71;100.00
54872;BME280;43914;57.680;11.982;2023-01-27T06:39:39;102221.33;;;-2.71;100.00
54872;BME280;43914;57.680;11.982;2023-01-27T06:42:05;102218.56;;;-2.72;100.00
54872;BME280;43914;57.680;11.982;2023-01-27T06:44:31;102220.48;;;-2.71;100.00
54872;BME280;43914;57.680;11.982;2023-01-27T06:46:57;102218.92;;;-2.72;100.00
54872;BME280;43914;57.680;11.982;2023-01-27T06:49:22;102207.45;;;-2.75;100.00
54872;BME280;43914;57.680;11.982;2023-01-27T06:51:48;102205.05;;;-2.76;100.00
54872;BME280;43914;57.680;11.982;2023-01-27T06:54:14;102211.27;;;-2.78;100.00
54872;BME280;43914;57.680;11.982;2023-01-27T06:56:40;102216.34;;;-2.78;100.00
54872;BME280;43914;57.680;11.982;2023-01-27T06:59:05;102217.92;;;-2.78;100.00
54872;BME280;43914;57.680;11.982;2023-01-27T07:01:31;102217.27;;;-2.79;100.00
54872;BME280;43914;57.680;11.982;2023-01-27T07:03:56;102220.05;;;-2.78;100.00
54872;BME280;43914;57.680;11.982;2023-01-27T07:06:22;102222.04;;;-2.80;100.00
54872;BME280;43914;57.680;11.982;2023-01-27T07:08:48;102217.16;;;-2.81;100.00
54872;BME280;43914;57.680;11.982;2023-01-27T07:11:15;102215.10;;;-2.82;100.00
54872;BME280;43914;57.680;11.982;2023-01-27T07:13:41;102213.21;;;-2.83;100.00
54872;BME280;43914;57.680;11.982;2023-01-27T07:16:06;102213.45;;;-2.85;100.00
54872;BME280;43914;57.680;11.982;2023-01-27T07:18:32;102209.65;;;-2.86;100.00
54872;BME280;43914;57.680;11.982;2023-01-27T07:20:57;102212.52;;;-2.83;100.00
54872;BME280;43914;57.680;11.982;2023-01-27T07:23:23;102208.88;;;-2.84;100.00
54872;BME280;43914;57.680;11.982;2023-01-27T07:25:49;102205.76;;;-2.85;100.00
54872;BME280;43914;57.680;11.982;2023-01-27T07:28:15;102199.42;;;-2.80;100.00
54872;BME280;43914;57.680;11.982;2023-01-27T07:30:40;102203.59;;;-2.66;100.00
54872;BME280;43914;57.680;11.982;2023-01-27T07:33:10;102203.34;;;-2.64;100.00
54872;BME280;43914;57.680;11.982;2023-01-27T07:35:37;102199.38;;;-2.61;100.00
54872;BME280;43914;57.680;11.982;2023-01-27T07:38:05;102199.54;;;-2.43;100.00
54872;BME280;43914;57.680;11.982;2023-01-27T07:40:31;102203.47;;;-2.45;100.00
54872;BME280;43914;57.680;11.982;2023-01-27T07:42:57;102207.91;;;-2.46;100.00
54872;BME280;43914;57.680;11.982;2023-01-27T07:45:23;102207.42;;;-2.47;100.00
54872;BME280;43914;57.680;11.982;2023-01-27T07:47:49;102205.67;;;-2.48;100.00
54872;BME280;43914;57.680;11.982;2023-01-27T07:50:17;102205.23;;;-2.50;100.00
54872;BME280;43914;57.680;11.982;2023-01-27T07:52:42;102212.28;;;-2.51;100.00
54872;BME280;43914;57.680;11.982;2023-01-27T07:55:08;102218.52;;;-2.48;100.00
54872;BME280;43914;57.680;11.982;2023-01-27T07:57:35;102219.77;;;-2.49;100.00
54872;BME280;43914;57.680;11.982;2023-01-27T08:00:02;102217.73;;;-2.47;100.00
54872;BME280;43914;57.680;11.982;2023-01-27T08:02:30;102212.50;;;-2.48;100.00
54872;BME280;43914;57.680;11.982;2023-01-27T08:04:55;102219.94;;;-2.44;100.00
54872;BME280;43914;57.680;11.982;2023-01-27T08:07:21;102223.72;;;-2.43;100.00
54872;BME280;43914;57.680;11.982;2023-01-27T08:09:47;102225.65;;;-2.43;100.00
54872;BME280;43914;57.680;11.982;2023-01-27T08:12:12;102221.05;;;-2.41;100.00
54872;BME280;43914;57.680;11.982;2023-01-27T08:14:39;102220.66;;;-2.41;100.00
54872;BME280;43914;57.680;11.982;2023-01-27T08:17:04;102226.84;;;-2.42;100.00
54872;BME280;43914;57.680;11.982;2023-01-27T08:19:30;102230.10;;;-2.40;100.00
54872;BME280;43914;57.680;11.982;2023-01-27T08:21:55;102224.27;;;-2.39;100.00
54872;BME280;43914;57.680;11.982;2023-01-27T08:24:22;102221.89;;;-2.41;100.00
54872;BME280;43914;57.680;11.982;2023-01-27T08:26:47;102227.06;;;-2.43;100.00
54872;BME280;43914;57.680;11.982;2023-01-27T08:29:13;102225.64;;;-2.42;100.00
54872;BME280;43914;57.680;11.982;2023-01-27T08:31:40;102220.56;;;-2.42;100.00
54872;BME280;43914;57.680;11.982;2023-01-27T08:34:06;102214.98;;;-2.44;100.00
54872;BME280;43914;57.680;11.982;2023-01-27T08:36:31;102216.87;;;-2.47;100.00
54872;BME280;43914;57.680;11.982;2023-01-27T08:38:57;102217.70;;;-2.50;100.00
54872;BME280;43914;57.680;11.982;2023-01-27T08:41:24;102220.42;;;-2.53;100.00
54872;BME280;43914;57.680;11.982;2023-01-27T08:43:51;102224.48;;;-2.53;100.00
54872;BME280;43914;57.680;11.982;2023-01-27T08:46:17;102220.21;;;-2.55;100.00
54872;BME280;43914;57.680;11.982;2023-01-27T08:48:43;102215.45;;;-2.55;100.00
54872;BME280;43914;57.680;11.982;2023-01-27T08:51:11;102215.84;;;-2.56;100.00
54872;BME280;43914;57.680;11.982;2023-01-27T08:53:37;102222.67;;;-2.56;100.00
54872;BME280;43914;57.680;11.982;2023-01-27T08:56:06;102224.86;;;-2.54;100.00
54872;BME280;43914;57.680;11.982;2023-01-27T08:58:32;102222.45;;;-2.50;100.00
54872;BME280;43914;57.680;11.982;2023-01-27T09:00:59;102214.04;;;-2.46;100.00
54872;BME280;43914;57.680;11.982;2023-01-27T09:03:30;102219.44;;;-2.41;100.00
54872;BME280;43914;57.680;11.982;2023-01-27T09:05:56;102218.48;;;-2.39;100.00
54872;BME280;43914;57.680;11.982;2023-01-27T09:08:21;102214.55;;;-2.37;100.00
54872;BME280;43914;57.680;11.982;2023-01-27T09:10:47;102202.65;;;-2.38;100.00
54872;BME280;43914;57.680;11.982;2023-01-27T09:13:13;102205.17;;;-2.36;100.00
54872;BME280;43914;57.680;11.982;2023-01-27T09:15:40;102203.05;;;-2.31;100.00
54872;BME280;43914;57.680;11.982;2023-01-27T09:18:05;102205.02;;;-2.23;100.00
54872;BME280;43914;57.680;11.982;2023-01-27T09:20:31;102202.50;;;-2.18;100.00
54872;BME280;43914;57.680;11.982;2023-01-27T09:22:58;102205.08;;;-2.16;100.00
54872;BME280;43914;57.680;11.982;2023-01-27T09:25:25;102201.98;;;-2.14;100.00
54872;BME280;43914;57.680;11.982;2023-01-27T09:27:54;102203.84;;;-2.08;100.00
54872;BME280;43914;57.680;11.982;2023-01-27T09:30:20;102209.08;;;-2.02;100.00
54872;BME280;43914;57.680;11.982;2023-01-27T09:32:46;102214.20;;;-1.99;100.00
54872;BME280;43914;57.680;11.982;2023-01-27T09:35:12;102216.09;;;-1.94;100.00
54872;BME280;43914;57.680;11.982;2023-01-27T09:38:02;102213.82;;;-1.90;100.00
54872;BME280;43914;57.680;11.982;2023-01-27T09:40:38;102220.17;;;-1.87;100.00
54872;BME280;43914;57.680;11.982;2023-01-27T09:43:20;102220.11;;;-1.85;100.00
54872;BME280;43914;57.680;11.982;2023-01-27T09:48:54;102225.68;;;-1.84;100.00
54872;BME280;43914;57.680;11.982;2023-01-27T09:51:45;102229.66;;;-1.82;100.00
54872;BME280;43914;57.680;11.982;2023-01-27T09:57:06;102233.16;;;-1.78;100.00
54872;BME280;43914;57.680;11.982;2023-01-27T10:06:07;102224.95;;;-1.59;100.00
54872;BME280;43914;57.680;11.982;2023-01-27T10:11:59;102209.54;;;-1.49;100.00
54872;BME280;43914;57.680;11.982;2023-01-27T10:14:55;102204.73;;;-1.43;100.00
54872;BME280;43914;57.680;11.982;2023-01-27T10:23:02;102195.86;;;-1.22;100.00
54872;BME280;43914;57.680;11.982;2023-01-27T10:25:56;102200.41;;;-1.14;100.00
54872;BME280;43914;57.680;11.982;2023-01-27T10:28:26;102204.16;;;-1.08;100.00
54872;BME280;43914;57.680;11.982;2023-01-27T10:31:16;102198.09;;;-1.05;100.00
54872;BME280;43914;57.680;11.982;2023-01-27T10:33:52;102204.32;;;-1.03;100.00
54872;BME280;43914;57.680;11.982;2023-01-27T10:39:19;102201.41;;;-0.97;100.00
54872;BME280;43914;57.680;11.982;2023-01-27T10:45:03;102205.11;;;-0.94;100.00
54872;BME280;43914;57.680;11.982;2023-01-27T10:50:59;102199.70;;;-0.87;100.00
54872;BME280;43914;57.680;11.982;2023-01-27T10:53:37;102198.67;;;-0.84;100.00
54872;BME280;43914;57.680;11.982;2023-01-27T10:56:19;102192.25;;;-0.82;100.00
54872;BME280;43914;57.680;11.982;2023-01-27T11:02:19;102188.46;;;-0.80;100.00
54872;BME280;43914;57.680;11.982;2023-01-27T11:05:16;102190.44;;;-0.78;100.00
54872;BME280;43914;57.680;11.982;2023-01-27T11:07:50;102192.16;;;-0.69;100.00
54872;BME280;43914;57.680;11.982;2023-01-27T11:10:18;102191.70;;;-0.60;100.00
54872;BME280;43914;57.680;11.982;2023-01-27T11:12:52;102194.98;;;-0.51;100.00
54872;BME280;43914;57.680;11.982;2023-01-27T11:15:31;102194.14;;;-0.49;100.00
54872;BME280;43914;57.680;11.982;2023-01-27T11:18:17;102194.95;;;-0.47;100.00
54872;BME280;43914;57.680;11.982;2023-01-27T11:20:48;102198.11;;;-0.43;100.00
54872;BME280;43914;57.680;11.982;2023-01-27T11:23:21;102193.89;;;-0.36;100.00
54872;BME280;43914;57.680;11.982;2023-01-27T11:28:27;102191.08;;;-0.19;100.00
54872;BME280;43914;57.680;11.982;2023-01-27T11:34:15;102192.04;;;-0.03;100.00
54872;BME280;43914;57.680;11.982;2023-01-27T11:36:42;102188.49;;;0.05;100.00
54872;BME280;43914;57.680;11.982;2023-01-27T11:39:11;102175.63;;;0.08;100.00
54872;BME280;43914;57.680;11.982;2023-01-27T11:41:51;102188.61;;;0.20;100.00
54872;BME280;43914;57.680;11.982;2023-01-27T11:44:20;102183.32;;;0.23;100.00
54872;BME280;43914;57.680;11.982;2023-01-27T11:46:47;102176.70;;;0.28;100.00
54872;BME280;43914;57.680;11.982;2023-01-27T11:49:21;102173.23;;;0.34;100.00
54872;BME280;43914;57.680;11.982;2023-01-27T11:51:47;102170.07;;;0.37;100.00
54872;BME280;43914;57.680;11.982;2023-01-27T11:54:21;102167.20;;;0.41;100.00
54872;BME280;43914;57.680;11.982;2023-01-27T11:56:49;102168.17;;;0.42;100.00
54872;BME280;43914;57.680;11.982;2023-01-27T11:59:36;102167.16;;;0.45;100.00
54872;BME280;43914;57.680;11.982;2023-01-27T12:02:32;102165.27;;;0.48;100.00
54872;BME280;43914;57.680;11.982;2023-01-27T12:05:10;102163.70;;;0.51;100.00
54872;BME280;43914;57.680;11.982;2023-01-27T12:07:51;102157.83;;;0.52;100.00
54872;BME280;43914;57.680;11.982;2023-01-27T12:10:31;102151.59;;;0.56;100.00
54872;BME280;43914;57.680;11.982;2023-01-27T12:13:07;102143.98;;;0.56;100.00
54872;BME280;43914;57.680;11.982;2023-01-27T12:15:34;102143.57;;;0.57;100.00
54872;BME280;43914;57.680;11.982;2023-01-27T12:18:13;102140.20;;;0.61;100.00
54872;BME280;43914;57.680;11.982;2023-01-27T12:20:41;102136.61;;;0.63;100.00
54872;BME280;43914;57.680;11.982;2023-01-27T12:23:35;102130.91;;;0.64;100.00
54872;BME280;43914;57.680;11.982;2023-01-27T12:26:08;102123.46;;;0.64;100.00
54872;BME280;43914;57.680;11.982;2023-01-27T12:28:49;102120.34;;;0.66;100.00
54872;BME280;43914;57.680;11.982;2023-01-27T12:31:27;102117.20;;;0.69;100.00
54872;BME280;43914;57.680;11.982;2023-01-27T12:34:06;102115.27;;;0.72;100.00
54872;BME280;43914;57.680;11.982;2023-01-27T12:36:38;102111.64;;;0.74;100.00
54872;BME280;43914;57.680;11.982;2023-01-27T12:39:04;102109.67;;;0.74;100.00
54872;BME280;43914;57.680;11.982;2023-01-27T12:41:33;102108.39;;;0.75;100.00
54872;BME280;43914;57.680;11.982;2023-01-27T12:44:15;102109.08;;;0.75;100.00
54872;BME280;43914;57.680;11.982;2023-01-27T12:49:22;102108.91;;;0.78;100.00
54872;BME280;43914;57.680;11.982;2023-01-27T12:51:52;102103.62;;;0.79;100.00
54872;BME280;43914;57.680;11.982;2023-01-27T12:54:25;102102.83;;;0.80;100.00
54872;BME280;43914;57.680;11.982;2023-01-27T12:57:02;102101.02;;;0.81;100.00
54872;BME280;43914;57.680;11.982;2023-01-27T12:59:29;102098.31;;;0.82;100.00
54872;BME280;43914;57.680;11.982;2023-01-27T13:04:42;102096.10;;;0.86;99.80
54872;BME280;43914;57.680;11.982;2023-01-27T13:07:16;102098.94;;;0.86;99.30
54872;BME280;43914;57.680;11.982;2023-01-27T13:09:47;102103.48;;;0.87;99.46
54872;BME280;43914;57.680;11.982;2023-01-27T13:12:19;102104.55;;;0.90;99.53
54872;BME280;43914;57.680;11.982;2023-01-27T13:14:49;102101.70;;;0.94;99.26
54872;BME280;43914;57.680;11.982;2023-01-27T13:20:05;102093.91;;;1.04;98.09
54872;BME280;43914;57.680;11.982;2023-01-27T13:22:40;102088.70;;;1.08;98.04
54872;BME280;43914;57.680;11.982;2023-01-27T13:25:15;102082.96;;;1.13;97.53
54872;BME280;43914;57.680;11.982;2023-01-27T13:27:43;102082.36;;;1.14;97.59
54872;BME280;43914;57.680;11.982;2023-01-27T13:30:35;102080.75;;;1.21;97.47
54872;BME280;43914;57.680;11.982;2023-01-27T13:33:16;102074.95;;;1.29;96.58
54872;BME280;43914;57.680;11.982;2023-01-27T13:35:59;102068.87;;;1.37;96.10
54872;BME280;43914;57.680;11.982;2023-01-27T13:38:39;102067.73;;;1.44;95.56
54872;BME280;43914;57.680;11.982;2023-01-27T13:41:17;102067.16;;;1.51;94.80
54872;BME280;43914;57.680;11.982;2023-01-27T13:43:52;102062.19;;;1.54;93.88
54872;BME280;43914;57.680;11.982;2023-01-27T13:46:27;102051.95;;;1.60;93.13